Time;durP1;ratioP1;P1;durP2;ratioP2;P2;SDS_P1;SDS_P2;PMS_P1;PMS_P2;Temp;Humidity;BMP_temperature;BMP_pressure;BME280_temperature;BME280_humidity;BME280_pressure;Samples;Min_cycle;Max_cycle;Signal;HPM_P1;HPM_P2
2021/12/04 00:02:21;;;;;;;10.98;6.63;;;;;;;;;;5080210;28;20024;-44
2021/12/04 00:04:50;;;;;;;9.13;6.72;;;;;;;;;;5077188;28;20039;-44
2021/12/04 00:07:16;;;;;;;16.27;8.00;;;;;;;;;;5073250;28;20125;-45
2021/12/04 00:09:45;;;;;;;12.20;7.60;;;;;;;;;;5077870;28;20025;-44
2021/12/04 00:12:12;;;;;;;17.92;9.65;;;;;;;;;;5078296;28;20036;-45
2021/12/04 00:14:38;;;;;;;14.23;8.38;;;;;;;;;;5073562;28;20461;-44
2021/12/04 00:17:05;;;;;;;22.58;11.00;;;;;;;;;;5075680;28;20023;-44
2021/12/04 00:19:31;;;;;;;28.42;13.18;;;;;;;;;;5080472;28;20102;-45
2021/12/04 00:21:58;;;;;;;21.27;12.18;;;;;;;;;;5074062;28;20032;-45
2021/12/04 00:24:25;;;;;;;31.00;12.95;;;;;;;;;;5074167;28;20037;-44
2021/12/04 00:26:52;;;;;;;19.15;11.48;;;;;;;;;;5071654;28;20127;-45
2021/12/04 00:29:18;;;;;;;15.93;9.68;;;;;;;;;;5081871;28;20028;-44
2021/12/04 00:31:49;;;;;;;10.23;6.88;;;;;;;;;;5073977;28;20047;-44
2021/12/04 00:34:18;;;;;;;10.30;6.37;;;;;;;;;;5078947;28;20071;-44
2021/12/04 00:50:36;;;;;;;11.80;7.22;;;;;;;;;;4985590;28;20072;-43
2021/12/04 00:53:02;;;;;;;10.77;7.50;;;;;;;;;;4985557;28;20314;-43
2021/12/04 00:55:27;;;;;;;12.05;7.35;;;;;;;;;;4988043;28;20038;-45
2021/12/04 00:57:53;;;;;;;10.57;7.07;;;;;;;;;;4986133;28;20074;-45
2021/12/04 01:00:20;;;;;;;9.80;7.35;;;;;;;;;;4986288;28;20033;-44
2021/12/04 01:02:46;;;;;;;14.25;7.85;;;;;;;;;;4986880;28;20054;-44
2021/12/04 01:05:12;;;;;;;10.15;7.15;;;;;;;;;;4986832;28;20049;-44
2021/12/04 01:07:38;;;;;;;12.23;7.80;;;;;;;;;;4987278;28;20104;-44
2021/12/04 01:10:06;;;;;;;14.88;7.70;;;;;;;;;;4987682;28;20050;-44
2021/12/04 01:12:32;;;;;;;10.63;7.43;;;;;;;;;;4987102;28;20054;-44
2021/12/04 01:14:58;;;;;;;10.77;7.20;;;;;;;;;;4985551;28;20042;-44
2021/12/04 01:17:23;;;;;;;11.70;6.93;;;;;;;;;;4978518;28;20034;-43
2021/12/04 01:19:49;;;;;;;10.73;7.18;;;;;;;;;;4976383;28;20133;-45
2021/12/04 01:22:16;;;;;;;13.93;6.72;;;;;;;;;;4977938;28;20257;-43
2021/12/04 01:24:42;;;;;;;8.77;6.13;;;;;;;;;;5045283;28;20045;-43
2021/12/04 01:27:08;;;;;;;10.23;6.90;;;;;;;;;;5073418;28;20041;-44
2021/12/04 01:29:33;;;;;;;10.43;6.43;;;;;;;;;;5074229;28;20021;-46
2021/12/04 01:31:59;;;;;;;8.32;6.75;;;;;;;;;;5074990;28;20113;-44
2021/12/04 01:34:25;;;;;;;8.35;6.70;;;;;;;;;;5073678;28;20036;-44
2021/12/04 01:36:50;;;;;;;11.13;6.88;;;;;;;;;;5079709;28;20040;-44
2021/12/04 01:39:16;;;;;;;11.50;6.75;;;;;;;;;;5077431;28;20033;-45
2021/12/04 01:41:42;;;;;;;12.38;6.50;;;;;;;;;;5080260;28;20043;-46
2021/12/04 01:44:08;;;;;;;12.52;7.63;;;;;;;;;;5074812;28;20032;-44
2021/12/04 01:46:34;;;;;;;10.23;6.60;;;;;;;;;;5074321;28;20093;-43
2021/12/04 01:49:01;;;;;;;13.27;7.13;;;;;;;;;;5080963;28;20059;-44
2021/12/04 01:51:27;;;;;;;11.50;7.30;;;;;;;;;;5077052;28;20032;-44
2021/12/04 01:53:53;;;;;;;7.85;6.45;;;;;;;;;;5074677;28;20172;-44
2021/12/04 01:56:19;;;;;;;10.80;6.80;;;;;;;;;;5076253;28;20450;-44
2021/12/04 01:58:44;;;;;;;12.05;6.10;;;;;;;;;;5079105;28;20025;-44
2021/12/04 02:01:10;;;;;;;7.35;5.93;;;;;;;;;;5083386;28;20029;-44
2021/12/04 02:03:37;;;;;;;12.18;6.95;;;;;;;;;;5082535;28;20054;-44
2021/12/04 02:06:03;;;;;;;12.13;7.15;;;;;;;;;;5079588;28;20071;-44
2021/12/04 02:08:29;;;;;;;7.88;5.97;;;;;;;;;;5086999;28;20020;-44
2021/12/04 02:10:59;;;;;;;8.50;6.20;;;;;;;;;;5082043;28;20362;-44
2021/12/04 02:13:25;;;;;;;9.35;6.00;;;;;;;;;;5080227;28;20107;-45
2021/12/04 02:15:52;;;;;;;10.30;6.05;;;;;;;;;;5081389;28;20052;-45
2021/12/04 02:18:20;;;;;;;5.95;5.07;;;;;;;;;;5076745;28;20028;-45
2021/12/04 02:20:46;;;;;;;9.13;5.97;;;;;;;;;;5086003;28;20132;-44
2021/12/04 02:23:12;;;;;;;9.85;6.22;;;;;;;;;;5075416;28;20111;-44
2021/12/04 02:25:38;;;;;;;8.20;5.32;;;;;;;;;;5082857;28;20458;-44
2021/12/04 02:28:06;;;;;;;7.22;4.78;;;;;;;;;;5080360;28;20477;-44
2021/12/04 02:30:35;;;;;;;5.70;4.80;;;;;;;;;;5079138;28;20028;-44
2021/12/04 02:33:11;;;;;;;8.32;5.10;;;;;;;;;;5080679;28;20033;-43
2021/12/04 02:35:49;;;;;;;5.43;4.45;;;;;;;;;;5075426;28;20035;-44
2021/12/04 02:38:17;;;;;;;6.57;5.13;;;;;;;;;;5080679;28;20037;-45
2021/12/04 02:40:45;;;;;;;7.78;5.00;;;;;;;;;;5078362;28;20044;-47
2021/12/04 02:43:12;;;;;;;7.30;4.13;;;;;;;;;;5081754;28;20082;-44
2021/12/04 02:45:38;;;;;;;5.85;4.90;;;;;;;;;;5077452;28;20036;-44
2021/12/04 02:48:04;;;;;;;7.13;4.38;;;;;;;;;;5082142;28;20074;-43
2021/12/04 02:50:29;;;;;;;6.45;4.60;;;;;;;;;;5084031;28;20024;-44
2021/12/04 02:52:55;;;;;;;9.55;5.00;;;;;;;;;;5083820;28;20027;-44
2021/12/04 02:55:21;;;;;;;5.80;4.47;;;;;;;;;;5073757;28;20088;-47
2021/12/04 02:57:47;;;;;;;6.82;4.50;;;;;;;;;;5076624;28;20029;-45
2021/12/04 03:00:16;;;;;;;7.00;4.47;;;;;;;;;;5077241;28;20036;-44
2021/12/04 03:02:42;;;;;;;5.18;4.60;;;;;;;;;;5078137;28;20452;-45
2021/12/04 03:05:09;;;;;;;4.90;3.67;;;;;;;;;;5078669;28;20030;-44
2021/12/04 03:07:35;;;;;;;4.57;4.03;;;;;;;;;;5077901;28;20039;-43
2021/12/04 03:10:02;;;;;;;6.50;3.83;;;;;;;;;;5078068;28;20036;-45
2021/12/04 03:12:29;;;;;;;7.43;3.65;;;;;;;;;;5079363;28;20070;-44
2021/12/04 03:14:54;;;;;;;3.97;3.50;;;;;;;;;;5081037;28;20044;-44
2021/12/04 03:17:22;;;;;;;5.10;3.42;;;;;;;;;;5081477;28;20032;-45
2021/12/04 03:19:52;;;;;;;6.45;3.30;;;;;;;;;;5081640;28;20047;-43
2021/12/04 03:22:20;;;;;;;4.68;3.65;;;;;;;;;;5080251;28;20044;-44
2021/12/04 03:24:47;;;;;;;4.03;3.63;;;;;;;;;;5074040;28;20089;-44
2021/12/04 03:27:15;;;;;;;6.40;3.53;;;;;;;;;;5077248;28;22116;-43
2021/12/04 03:29:43;;;;;;;3.50;3.20;;;;;;;;;;5077703;28;20580;-43
2021/12/04 03:32:44;;;;;;;5.15;3.22;;;;;;;;;;5078723;28;20475;-44
2021/12/04 03:43:11;;;;;;;5.25;2.90;;;;;;;;;;5077560;28;20036;-44
2021/12/04 03:45:40;;;;;;;4.15;3.20;;;;;;;;;;5076068;28;20554;-44
2021/12/04 03:48:09;;;;;;;4.47;3.40;;;;;;;;;;5079669;28;20035;-44
2021/12/04 03:50:36;;;;;;;3.63;2.72;;;;;;;;;;5082685;28;20066;-43
2021/12/04 03:53:02;;;;;;;4.93;2.80;;;;;;;;;;5080092;28;20020;-45
2021/12/04 03:55:28;;;;;;;3.92;2.55;;;;;;;;;;5076044;28;20051;-44
2021/12/04 03:57:54;;;;;;;4.85;2.90;;;;;;;;;;5081608;28;20024;-43
2021/12/04 04:00:20;;;;;;;4.40;2.67;;;;;;;;;;5077074;28;20044;-46
2021/12/04 04:02:46;;;;;;;3.00;2.70;;;;;;;;;;5074706;28;20033;-44
2021/12/04 04:05:13;;;;;;;3.47;3.15;;;;;;;;;;5082265;28;20031;-44
2021/12/04 04:07:38;;;;;;;4.22;2.60;;;;;;;;;;5077743;28;20424;-43
2021/12/04 04:10:06;;;;;;;3.47;2.88;;;;;;;;;;5078490;28;20024;-43
2021/12/04 04:12:32;;;;;;;4.35;3.10;;;;;;;;;;5079596;28;20082;-44
2021/12/04 04:14:58;;;;;;;3.30;3.00;;;;;;;;;;5078348;28;20036;-44
2021/12/04 04:17:26;;;;;;;3.38;3.05;;;;;;;;;;5078370;28;20078;-44
2021/12/04 04:19:51;;;;;;;4.57;3.00;;;;;;;;;;5077748;28;20040;-44
2021/12/04 04:22:17;;;;;;;3.05;2.75;;;;;;;;;;5076571;28;20055;-44
2021/12/04 04:24:43;;;;;;;3.88;2.85;;;;;;;;;;5075699;28;20036;-44
2021/12/04 04:27:08;;;;;;;4.00;3.20;;;;;;;;;;5074780;28;20033;-44
2021/12/04 04:29:34;;;;;;;3.47;2.80;;;;;;;;;;5077905;28;20100;-44
2021/12/04 04:32:00;;;;;;;3.35;2.70;;;;;;;;;;5080607;28;20059;-44
2021/12/04 04:34:30;;;;;;;3.25;2.67;;;;;;;;;;5075500;28;20036;-44
2021/12/04 04:37:10;;;;;;;3.13;2.50;;;;;;;;;;5078180;28;20082;-45
2021/12/04 05:14:39;;;;;;;2.83;2.35;;;;;;;;;;5018475;28;20403;-44
2021/12/04 05:17:08;;;;;;;5.05;2.28;;;;;;;;;;5017846;28;20053;-45
2021/12/04 05:22:04;;;;;;;3.42;2.30;;;;;;;;;;5023347;28;20068;-45
2021/12/04 05:24:30;;;;;;;5.38;3.53;;;;;;;;;;5018872;28;20037;-44
2021/12/04 05:26:56;;;;;;;2.60;2.25;;;;;;;;;;5021395;28;20518;-45
2021/12/04 05:29:21;;;;;;;4.65;2.78;;;;;;;;;;5015399;28;20085;-45
2021/12/04 05:31:47;;;;;;;4.43;2.50;;;;;;;;;;5023601;28;20335;-44
2021/12/04 05:34:14;;;;;;;6.25;2.33;;;;;;;;;;5023381;28;20048;-44
2021/12/04 05:36:40;;;;;;;3.78;2.60;;;;;;;;;;5021155;28;20038;-44
2021/12/04 05:39:06;;;;;;;3.25;2.47;;;;;;;;;;5021772;28;20030;-44
2021/12/04 05:41:32;;;;;;;4.60;2.90;;;;;;;;;;5023445;28;20025;-44
2021/12/04 05:44:03;;;;;;;7.47;2.80;;;;;;;;;;5048813;28;20036;-44
2021/12/04 05:46:34;;;;;;;3.25;2.45;;;;;;;;;;5077329;28;20532;-46
2021/12/04 05:49:04;;;;;;;6.72;2.70;;;;;;;;;;5077332;28;20141;-45
2021/12/04 05:51:37;;;;;;;5.43;2.85;;;;;;;;;;5076638;28;20036;-44
2021/12/04 05:54:06;;;;;;;3.75;2.63;;;;;;;;;;5079718;28;20032;-44
2021/12/04 05:56:34;;;;;;;7.70;2.63;;;;;;;;;;5076033;28;20021;-44
2021/12/04 05:59:01;;;;;;;3.10;2.78;;;;;;;;;;5074425;28;20465;-45
2021/12/04 06:01:28;;;;;;;3.67;2.75;;;;;;;;;;5076861;28;20028;-44
2021/12/04 06:03:54;;;;;;;3.25;2.42;;;;;;;;;;5077693;28;20483;-44
2021/12/04 06:06:20;;;;;;;6.13;2.72;;;;;;;;;;5084423;28;20098;-47
2021/12/04 06:08:46;;;;;;;4.35;3.17;;;;;;;;;;5082442;28;20115;-45
2021/12/04 06:11:12;;;;;;;3.42;3.03;;;;;;;;;;5082303;28;20031;-44
2021/12/04 06:13:38;;;;;;;3.58;2.80;;;;;;;;;;5077579;28;20032;-44
2021/12/04 06:16:04;;;;;;;4.53;3.13;;;;;;;;;;5074340;28;20037;-45
2021/12/04 06:18:32;;;;;;;7.60;3.33;;;;;;;;;;5076626;28;20028;-44
2021/12/04 06:23:41;;;;;;;5.05;3.38;;;;;;;;;;5073622;28;20481;-44
2021/12/04 06:26:09;;;;;;;7.40;3.70;;;;;;;;;;5071344;28;20048;-44
2021/12/04 06:28:35;;;;;;;3.70;3.40;;;;;;;;;;5072159;28;20526;-44
2021/12/04 06:31:01;;;;;;;3.92;3.30;;;;;;;;;;5072170;28;20400;-45
2021/12/04 06:33:27;;;;;;;5.43;3.03;;;;;;;;;;5077688;28;20144;-45
2021/12/04 06:35:53;;;;;;;6.43;3.10;;;;;;;;;;5073419;28;20038;-44
2021/12/04 06:38:19;;;;;;;5.45;3.33;;;;;;;;;;5075381;28;20103;-44
2021/12/04 06:40:47;;;;;;;8.02;3.20;;;;;;;;;;5079958;28;20028;-46
2021/12/04 06:43:13;;;;;;;5.57;3.20;;;;;;;;;;5073334;28;20029;-44
2021/12/04 06:45:46;;;;;;;4.53;3.20;;;;;;;;;;5076121;28;20082;-43
2021/12/04 06:48:21;;;;;;;5.55;2.90;;;;;;;;;;5078090;28;20089;-44
2021/12/04 06:51:15;;;;;;;3.78;3.08;;;;;;;;;;5076873;28;20043;-44
2021/12/04 06:53:58;;;;;;;3.90;3.50;;;;;;;;;;5077830;28;20036;-44
2021/12/04 06:56:31;;;;;;;6.25;4.22;;;;;;;;;;5077348;28;20039;-45
2021/12/04 06:58:56;;;;;;;;;;;;;;;;;;5082992;28;20028;-45
2021/12/04 07:01:22;;;;;;;6.15;4.03;;;;;;;;;;5088623;28;19923;-45
2021/12/04 07:03:48;;;;;;;5.50;3.53;;;;;;;;;;5078865;28;20036;-44
2021/12/04 07:06:14;;;;;;;6.47;3.60;;;;;;;;;;5077828;28;20098;-47
2021/12/04 07:08:39;;;;;;;4.15;3.60;;;;;;;;;;5077777;28;20473;-44
2021/12/04 07:11:06;;;;;;;3.92;3.53;;;;;;;;;;5080816;28;20028;-45
2021/12/04 07:13:33;;;;;;;7.15;3.60;;;;;;;;;;5077346;28;20095;-44
2021/12/04 07:16:04;;;;;;;3.90;3.50;;;;;;;;;;5078486;28;20094;-44
2021/12/04 07:18:31;;;;;;;11.90;4.70;;;;;;;;;;5080068;28;20435;-44
2021/12/04 07:20:57;;;;;;;6.50;4.07;;;;;;;;;;5081075;28;20047;-44
2021/12/04 07:23:23;;;;;;;6.10;4.00;;;;;;;;;;5083088;28;20088;-45
2021/12/04 07:25:49;;;;;;;6.82;4.55;;;;;;;;;;5077767;28;20408;-45
2021/12/04 07:28:15;;;;;;;7.93;4.22;;;;;;;;;;5080000;28;20032;-46
2021/12/04 07:30:40;;;;;;;6.13;4.30;;;;;;;;;;5076234;28;20144;-44
2021/12/04 07:33:06;;;;;;;5.57;4.35;;;;;;;;;;5075519;28;20063;-44
2021/12/04 07:35:32;;;;;;;10.10;4.57;;;;;;;;;;5083902;28;20052;-44
2021/12/04 07:38:00;;;;;;;13.73;4.90;;;;;;;;;;5084032;28;20488;-44
2021/12/04 07:40:26;;;;;;;8.55;4.60;;;;;;;;;;5084188;28;20055;-43
2021/12/04 07:42:52;;;;;;;11.10;4.10;;;;;;;;;;5078082;28;20048;-45
2021/12/04 07:45:18;;;;;;;8.60;4.68;;;;;;;;;;5074558;28;20036;-45
2021/12/04 07:47:44;;;;;;;4.80;3.85;;;;;;;;;;5081075;28;20377;-44
2021/12/04 07:50:10;;;;;;;6.88;4.45;;;;;;;;;;5084709;28;20541;-44
2021/12/04 07:52:38;;;;;;;6.32;4.60;;;;;;;;;;5077677;28;20107;-45
2021/12/04 07:55:09;;;;;;;7.60;4.57;;;;;;;;;;5078690;28;20040;-44
2021/12/04 07:57:35;;;;;;;6.95;4.90;;;;;;;;;;5082690;28;20123;-44
2021/12/04 08:00:04;;;;;;;18.67;8.90;;;;;;;;;;5078488;28;20024;-45
2021/12/04 08:02:37;;;;;;;15.43;9.15;;;;;;;;;;5080473;28;20028;-44
2021/12/04 08:05:03;;;;;;;16.60;9.10;;;;;;;;;;5076979;28;20059;-44
2021/12/04 08:07:29;;;;;;;16.63;10.15;;;;;;;;;;5081663;28;20024;-44
2021/12/04 08:09:55;;;;;;;16.20;9.32;;;;;;;;;;5078005;28;20039;-44
2021/12/04 08:12:21;;;;;;;12.68;8.75;;;;;;;;;;5077059;28;20047;-45
2021/12/04 08:14:46;;;;;;;16.88;8.60;;;;;;;;;;5076080;28;20040;-44
2021/12/04 08:17:12;;;;;;;13.95;9.25;;;;;;;;;;5080802;28;20036;-44
2021/12/04 08:19:38;;;;;;;15.55;8.68;;;;;;;;;;5080909;28;20119;-45
2021/12/04 08:22:04;;;;;;;16.98;10.15;;;;;;;;;;5082222;28;20060;-46
2021/12/04 08:24:30;;;;;;;14.32;8.60;;;;;;;;;;5072088;28;20045;-45
2021/12/04 08:26:56;;;;;;;15.45;9.43;;;;;;;;;;5080426;28;20058;-45
2021/12/04 08:29:22;;;;;;;13.32;8.60;;;;;;;;;;5084006;28;20017;-44
2021/12/04 08:31:50;;;;;;;19.10;9.63;;;;;;;;;;5075733;28;22032;-44
2021/12/04 08:34:16;;;;;;;13.02;9.10;;;;;;;;;;5078725;28;20035;-44
2021/12/04 08:36:42;;;;;;;17.80;8.43;;;;;;;;;;5077326;28;20016;-45
2021/12/04 08:39:08;;;;;;;12.38;9.05;;;;;;;;;;5082928;28;20036;-44
2021/12/04 08:41:34;;;;;;;12.45;7.10;;;;;;;;;;5077672;28;20040;-44
2021/12/04 08:43:59;;;;;;;12.45;7.25;;;;;;;;;;5079293;28;20036;-44
2021/12/04 08:46:26;;;;;;;20.10;7.35;;;;;;;;;;5079468;28;20027;-45
2021/12/04 08:48:54;;;;;;;15.73;7.40;;;;;;;;;;5078509;28;20377;-43
2021/12/04 08:51:22;;;;;;;9.93;6.82;;;;;;;;;;5072899;28;20103;-44
2021/12/04 08:53:52;;;;;;;20.60;8.63;;;;;;;;;;5076122;28;20028;-45
2021/12/04 08:56:18;;;;;;;14.68;8.48;;;;;;;;;;5077974;28;20468;-44
2021/12/04 08:58:44;;;;;;;22.50;9.43;;;;;;;;;;5079718;28;20096;-46
2021/12/04 09:01:16;;;;;;;24.17;11.20;;;;;;;;;;5080469;28;20028;-45
2021/12/04 09:03:45;;;;;;;31.13;10.23;;;;;;;;;;5077777;28;20035;-44
2021/12/04 09:06:12;;;;;;;29.35;10.30;;;;;;;;;;5078579;28;20480;-44
2021/12/04 09:08:38;;;;;;;23.55;10.73;;;;;;;;;;5088406;28;20056;-44
2021/12/04 09:11:17;;;;;;;25.77;10.60;;;;;;;;;;5076703;28;20062;-44
2021/12/04 09:13:44;;;;;;;27.25;11.50;;;;;;;;;;5081458;28;20041;-45
2021/12/04 09:16:10;;;;;;;29.05;11.80;;;;;;;;;;5074608;28;20115;-45
2021/12/04 09:18:37;;;;;;;28.38;11.43;;;;;;;;;;5077325;28;20372;-44
2021/12/04 09:21:05;;;;;;;25.45;12.00;;;;;;;;;;5075193;28;20031;-46
2021/12/04 09:23:34;;;;;;;19.17;11.18;;;;;;;;;;5075386;28;20036;-44
2021/12/04 09:26:02;;;;;;;20.38;11.60;;;;;;;;;;5072766;28;20043;-44
2021/12/04 10:20:11;;;;;;;22.50;11.98;;;;;;;;;;5065863;28;20098;-47
2021/12/04 10:23:02;;;;;;;18.67;11.45;;;;;;;;;;5059702;28;20032;-46
2021/12/04 10:33:58;;;;;;;21.73;12.77;;;;;;;;;;5059677;28;20090;-47
2021/12/04 10:36:34;;;;;;;22.60;12.52;;;;;;;;;;5061603;28;20029;-47
2021/12/04 10:39:03;;;;;;;25.48;15.13;;;;;;;;;;5063643;28;20036;-49
2021/12/04 10:41:38;;;;;;;22.75;15.27;;;;;;;;;;5066741;28;20020;-45
2021/12/04 10:44:19;;;;;;;26.45;16.48;;;;;;;;;;5059080;28;20047;-44
2021/12/04 10:46:58;;;;;;;34.47;19.17;;;;;;;;;;5059736;28;20036;-44
2021/12/04 10:49:55;;;;;;;36.90;19.90;;;;;;;;;;5058877;28;20575;-44
2021/12/04 10:55:32;;;;;;;28.58;17.95;;;;;;;;;;5070842;28;20040;-44
2021/12/04 11:00:51;;;;;;;24.52;14.07;;;;;;;;;;5074072;28;20059;-44
2021/12/04 11:41:14;;;;;;;46.45;26.55;;;;;;;;;;5063825;28;20568;-45
2021/12/04 11:48:47;;;;;;;21.13;12.60;;;;;;;;;;5065174;28;20045;-44
2021/12/04 11:51:23;;;;;;;18.77;12.32;;;;;;;;;;5065383;28;20032;-44
2021/12/04 11:53:50;;;;;;;26.27;15.35;;;;;;;;;;5063742;28;20032;-44
2021/12/04 11:56:19;;;;;;;19.30;12.88;;;;;;;;;;5061216;28;20549;-46
2021/12/04 11:58:47;;;;;;;21.00;14.40;;;;;;;;;;5061140;28;20037;-44
2021/12/04 12:01:39;;;;;;;24.58;15.32;;;;;;;;;;5067863;28;20047;-44
2021/12/04 12:04:10;;;;;;;26.30;16.08;;;;;;;;;;5075273;28;20046;-44
2021/12/04 12:06:42;;;;;;;27.40;18.17;;;;;;;;;;5081598;28;20099;-44
2021/12/04 12:09:26;;;;;;;27.33;16.95;;;;;;;;;;5082080;28;20052;-45
2021/12/04 12:11:55;;;;;;;29.08;16.08;;;;;;;;;;5079329;28;20469;-45
2021/12/04 12:14:35;;;;;;;22.80;13.02;;;;;;;;;;5082786;28;20024;-44
2021/12/04 12:17:01;;;;;;;25.58;12.65;;;;;;;;;;5076815;28;20121;-47
2021/12/04 12:19:36;;;;;;;27.48;12.70;;;;;;;;;;5078182;28;20027;-44
2021/12/04 12:22:11;;;;;;;17.60;9.38;;;;;;;;;;5084787;28;20032;-44
2021/12/04 12:38:42;;;;;;;21.48;10.02;;;;;;;;;;5044554;28;20511;-44
2021/12/04 12:41:23;;;;;;;21.77;11.20;;;;;;;;;;5030135;28;20036;-45
2021/12/04 12:43:51;;;;;;;21.10;10.68;;;;;;;;;;5040633;28;20042;-44
2021/12/04 12:46:18;;;;;;;16.80;10.35;;;;;;;;;;5045126;28;20056;-44
2021/12/04 12:48:46;;;;;;;22.65;9.93;;;;;;;;;;5041234;28;20095;-44
2021/12/04 12:51:12;;;;;;;22.70;9.23;;;;;;;;;;5041233;28;20061;-44
2021/12/04 12:53:45;;;;;;;17.85;10.75;;;;;;;;;;5046743;28;20099;-44
2021/12/04 12:56:14;;;;;;;21.25;11.00;;;;;;;;;;5037669;28;20052;-44
2021/12/04 12:59:35;;;;;;;20.92;10.25;;;;;;;;;;5044476;28;20071;-45
2021/12/04 13:13:36;;;;;;;18.80;7.85;;;;;;;;;;5003082;28;20037;-45
2021/12/04 13:16:19;;;;;;;26.88;7.57;;;;;;;;;;5004740;28;20411;-46
2021/12/04 13:18:51;;;;;;;30.30;6.72;;;;;;;;;;5004670;28;20026;-46
2021/12/04 13:21:18;;;;;;;17.67;6.03;;;;;;;;;;5003003;28;20037;-46
2021/12/04 13:23:49;;;;;;;18.65;4.70;;;;;;;;;;5004289;28;20053;-45
2021/12/04 13:26:15;;;;;;;24.23;5.82;;;;;;;;;;5006382;28;20398;-44
2021/12/04 13:28:49;;;;;;;32.22;6.03;;;;;;;;;;5006923;28;20091;-45
2021/12/04 13:31:18;;;;;;;22.60;6.60;;;;;;;;;;5001838;28;20060;-44
2021/12/04 13:33:48;;;;;;;25.73;7.38;;;;;;;;;;5004695;28;20042;-45
2021/12/04 13:36:16;;;;;;;21.35;4.43;;;;;;;;;;5006111;28;20030;-45
2021/12/04 13:38:42;;;;;;;21.10;4.82;;;;;;;;;;5003871;28;20030;-45
2021/12/04 13:41:08;;;;;;;19.45;5.55;;;;;;;;;;5041252;28;20105;-44
2021/12/04 13:43:34;;;;;;;15.55;3.85;;;;;;;;;;5087248;28;20121;-44
2021/12/04 13:46:03;;;;;;;19.95;4.00;;;;;;;;;;5085768;28;20036;-46
2021/12/04 13:48:31;;;;;;;31.88;5.55;;;;;;;;;;5078002;28;20035;-45
2021/12/04 13:50:57;;;;;;;22.08;7.57;;;;;;;;;;5077978;28;20031;-46
2021/12/04 13:53:33;;;;;;;26.33;10.25;;;;;;;;;;5076466;28;20043;-45
2021/12/04 13:56:11;;;;;;;32.17;9.98;;;;;;;;;;5090649;28;20028;-44
2021/12/04 13:58:54;;;;;;;29.55;8.88;;;;;;;;;;5087111;28;20035;-45
2021/12/04 14:01:21;;;;;;;32.03;9.77;;;;;;;;;;5080750;28;20025;-44
2021/12/04 14:03:47;;;;;;;27.85;9.93;;;;;;;;;;5076576;28;20040;-44
2021/12/04 14:06:15;;;;;;;22.00;9.52;;;;;;;;;;5075838;28;20024;-43
2021/12/04 14:08:42;;;;;;;22.42;8.60;;;;;;;;;;5086786;28;20503;-45
2021/12/04 14:11:08;;;;;;;20.90;8.02;;;;;;;;;;5079477;28;20036;-43
2021/12/04 14:13:37;;;;;;;29.23;12.60;;;;;;;;;;5084132;28;20028;-47
2021/12/04 14:16:03;;;;;;;25.67;13.27;;;;;;;;;;5080614;28;20070;-44
2021/12/04 14:18:29;;;;;;;32.78;14.50;;;;;;;;;;5089104;28;20405;-44
2021/12/04 14:21:00;;;;;;;24.55;11.20;;;;;;;;;;5074472;28;20113;-44
2021/12/04 14:23:31;;;;;;;22.73;10.65;;;;;;;;;;5083855;28;20048;-45
2021/12/04 14:26:02;;;;;;;27.08;11.50;;;;;;;;;;5082826;28;20108;-45
2021/12/04 14:28:33;;;;;;;43.40;12.13;;;;;;;;;;5086184;28;20099;-44
2021/12/04 14:30:58;;;;;;;33.55;12.40;;;;;;;;;;5078089;28;20041;-46
2021/12/04 14:33:26;;;;;;;32.17;10.55;;;;;;;;;;5087964;28;20027;-45
2021/12/04 14:35:54;;;;;;;25.92;12.90;;;;;;;;;;5079207;28;20488;-44
2021/12/04 14:38:26;;;;;;;21.52;11.43;;;;;;;;;;5080807;28;20044;-44
2021/12/04 14:40:55;;;;;;;;;;;;;;;;;;5085312;28;20032;-44
2021/12/04 14:43:23;;;;;;;36.17;13.95;;;;;;;;;;5076335;28;19923;-45
2021/12/04 14:45:54;;;;;;;27.33;13.40;;;;;;;;;;5075489;28;20050;-44
2021/12/04 14:48:33;;;;;;;23.52;10.82;;;;;;;;;;5083889;28;20040;-44
2021/12/04 14:51:05;;;;;;;21.40;10.73;;;;;;;;;;5084707;28;20044;-44
2021/12/04 14:53:32;;;;;;;;;;;;;;;;;;5087381;28;20114;-44
2021/12/04 14:55:59;;;;;;;30.58;12.30;;;;;;;;;;5081654;28;20360;-45
2021/12/04 14:58:26;;;;;;;40.05;15.77;;;;;;;;;;5086068;28;20020;-45
2021/12/04 15:00:58;;;;;;;39.80;25.63;;;;;;;;;;5076650;28;20497;-44
2021/12/04 15:03:44;;;;;;;45.47;28.00;;;;;;;;;;5081866;28;20033;-44
2021/12/04 15:06:14;;;;;;;47.80;26.92;;;;;;;;;;5082816;28;20107;-45
2021/12/04 15:08:43;;;;;;;45.95;24.48;;;;;;;;;;5082227;28;20028;-44
2021/12/04 15:11:16;;;;;;;39.22;23.10;;;;;;;;;;5081652;28;20031;-48
2021/12/04 15:14:06;;;;;;;48.83;21.58;;;;;;;;;;5079898;28;20036;-44
2021/12/04 15:19:39;;;;;;;34.30;17.52;;;;;;;;;;5079313;28;20372;-45
2021/12/04 15:22:12;;;;;;;47.53;18.52;;;;;;;;;;5081801;28;20427;-44
2021/12/04 15:24:41;;;;;;;38.55;18.40;;;;;;;;;;5082990;28;20047;-45
2021/12/04 15:27:11;;;;;;;41.42;17.05;;;;;;;;;;5082322;28;20024;-44
2021/12/04 15:29:38;;;;;;;22.77;12.85;;;;;;;;;;5079346;28;20445;-45
2021/12/04 15:32:10;;;;;;;29.65;16.30;;;;;;;;;;5080099;28;20070;-44
2021/12/04 15:34:47;;;;;;;37.53;21.67;;;;;;;;;;5083771;28;20027;-44
2021/12/04 15:37:13;;;;;;;36.00;19.20;;;;;;;;;;5077532;28;20035;-44
2021/12/04 15:39:44;;;;;;;56.72;30.63;;;;;;;;;;5083205;28;20044;-45
2021/12/04 15:42:32;;;;;;;75.05;35.35;;;;;;;;;;5082796;28;20036;-44
2021/12/04 15:45:28;;;;;;;44.58;27.35;;;;;;;;;;5077507;28;20066;-44
2021/12/04 15:53:15;;;;;;;63.43;33.07;;;;;;;;;;5083664;28;20028;-45
2021/12/04 15:55:46;;;;;;;81.05;43.22;;;;;;;;;;5079552;28;20040;-46
2021/12/04 15:58:15;;;;;;;72.57;40.13;;;;;;;;;;5075140;28;20089;-45
2021/12/04 16:00:52;;;;;;;108.65;53.67;;;;;;;;;;5077368;28;20035;-46
2021/12/04 16:03:20;;;;;;;89.45;44.88;;;;;;;;;;5076207;28;20029;-44
2021/12/04 16:05:51;;;;;;;102.97;51.55;;;;;;;;;;5080288;28;20116;-45
2021/12/04 16:08:21;;;;;;;124.05;54.58;;;;;;;;;;5078282;28;20039;-44
2021/12/04 16:10:49;;;;;;;57.17;30.48;;;;;;;;;;5084019;28;20066;-47
2021/12/04 16:13:23;;;;;;;53.17;30.27;;;;;;;;;;5075685;28;20536;-44
2021/12/04 16:15:49;;;;;;;31.38;19.00;;;;;;;;;;5082319;28;20449;-44
2021/12/04 16:18:16;;;;;;;64.28;29.10;;;;;;;;;;5078052;28;20082;-50
2021/12/04 16:20:42;;;;;;;51.78;22.05;;;;;;;;;;5077694;28;20107;-46
2021/12/04 16:23:08;;;;;;;38.15;19.83;;;;;;;;;;5084039;28;20104;-44
2021/12/04 16:25:37;;;;;;;40.08;16.83;;;;;;;;;;5078657;28;20056;-44
2021/12/04 16:38:05;;;;;;;109.00;63.78;;;;;;;;;;5080166;28;20078;-45
2021/12/04 16:40:35;;;;;;;59.75;34.53;;;;;;;;;;5080266;28;20027;-44
2021/12/04 16:43:07;;;;;;;49.83;26.75;;;;;;;;;;5080425;28;20496;-44
2021/12/04 16:45:35;;;;;;;24.25;14.25;;;;;;;;;;5080962;28;20114;-46
2021/12/04 16:48:07;;;;;;;21.20;9.55;;;;;;;;;;5080507;28;20051;-49
2021/12/04 16:58:50;;;;;;;20.30;10.13;;;;;;;;;;5022918;28;20045;-46
2021/12/04 17:01:17;;;;;;;25.45;11.13;;;;;;;;;;5021381;28;20168;-48
2021/12/04 17:03:44;;;;;;;28.67;12.48;;;;;;;;;;5023723;28;20048;-45
2021/12/04 17:06:09;;;;;;;29.80;13.73;;;;;;;;;;5025706;28;20055;-48
2021/12/04 17:08:35;;;;;;;32.08;12.55;;;;;;;;;;5024148;28;20790;-46
2021/12/04 17:11:02;;;;;;;21.15;11.93;;;;;;;;;;5024660;28;20029;-44
2021/12/04 17:13:28;;;;;;;27.83;12.20;;;;;;;;;;5025665;28;20121;-49
2021/12/04 17:15:54;;;;;;;22.15;12.00;;;;;;;;;;5024045;28;20057;-48
2021/12/04 17:18:25;;;;;;;27.98;14.85;;;;;;;;;;5025467;28;20126;-47
2021/12/04 17:20:53;;;;;;;24.80;13.70;;;;;;;;;;5025300;28;20036;-47
2021/12/04 17:23:22;;;;;;;27.08;16.13;;;;;;;;;;5024919;28;20045;-48
2021/12/04 17:25:51;;;;;;;45.28;24.15;;;;;;;;;;5022287;28;20486;-45
2021/12/04 17:28:20;;;;;;;51.25;30.85;;;;;;;;;;5025610;28;20159;-45
2021/12/04 17:30:48;;;;;;;85.07;45.83;;;;;;;;;;5061646;28;20116;-47
2021/12/04 17:33:14;;;;;;;61.85;39.95;;;;;;;;;;5077593;28;20492;-47
2021/12/04 17:35:39;;;;;;;55.35;32.92;;;;;;;;;;5080768;28;20105;-49
2021/12/04 17:38:06;;;;;;;56.17;36.70;;;;;;;;;;5074754;28;20463;-45
2021/12/04 17:40:34;;;;;;;48.03;30.50;;;;;;;;;;5076779;28;20044;-47
2021/12/04 17:43:00;;;;;;;45.75;26.25;;;;;;;;;;5078775;28;20373;-48
2021/12/04 17:45:26;;;;;;;34.13;21.45;;;;;;;;;;5075403;28;20375;-45
2021/12/04 17:47:52;;;;;;;26.08;17.40;;;;;;;;;;5074125;28;20060;-47
2021/12/04 17:50:25;;;;;;;20.30;13.27;;;;;;;;;;5073908;28;20441;-47
2021/12/04 17:52:54;;;;;;;31.10;17.73;;;;;;;;;;5074206;28;20534;-44
2021/12/04 17:55:21;;;;;;;25.52;16.58;;;;;;;;;;5076427;28;20078;-49
2021/12/04 17:57:47;;;;;;;19.45;13.20;;;;;;;;;;5074401;28;20038;-48
2021/12/04 18:00:25;;;;;;;19.48;10.88;;;;;;;;;;5073023;28;20028;-46
2021/12/04 18:02:53;;;;;;;16.88;10.20;;;;;;;;;;5068984;28;20036;-45
2021/12/04 18:05:24;;;;;;;12.20;9.00;;;;;;;;;;5071773;28;20036;-45
2021/12/04 18:07:54;;;;;;;18.50;10.55;;;;;;;;;;5074545;28;20093;-44
2021/12/04 18:10:20;;;;;;;19.40;11.80;;;;;;;;;;5071922;28;20032;-45
2021/12/04 18:12:54;;;;;;;12.93;9.90;;;;;;;;;;5073769;28;20028;-44
2021/12/04 18:15:28;;;;;;;17.52;11.57;;;;;;;;;;5067639;28;20354;-44
2021/12/04 18:17:54;;;;;;;20.08;10.00;;;;;;;;;;5074517;28;20090;-45
2021/12/04 18:20:22;;;;;;;14.15;9.05;;;;;;;;;;5076812;28;20024;-44
2021/12/04 18:22:50;;;;;;;13.07;9.35;;;;;;;;;;5076471;28;20033;-44
2021/12/04 18:25:16;;;;;;;16.83;9.55;;;;;;;;;;5072497;28;20040;-45